Söndag 2021-10-17 18:56:54 vecka 41, namnsdag Antonia, Toini, imorgon Lukas  [Huvudmeny]   minomax.se   minomax.se/synop   minomax.se/flyg   wwwinfo.se   medd.nu  -  meddelanden   kakor SYNOP-data Visa SYNOP-temperaturer och data
Land: skriv landsbeteckning, 2 bokstäver, tex. se för Sverige. Sök land Sökord: skriv sökord, eller lämna tomt så visas alla Visar SYNOP för SE- Sverige Land/ IATA Id Mätplats Temp Tid Datum region ICAO SYNOP... WMO-nr ----- ------------------------- ----- ----- ---------- ------ --- ---- -----------------... 02013 Ritsem|Akkastugan 0,9 17:00 2021-10-17 SE-BD AAXX 17151 02013 27/64 /3102 10009 21015 39389 40042 52027 72472 333 60005 90710 91107= 02019 Katterjakk|Lapplandia/Air 0,3 17:00 2021-10-17 SE-BD AAXX 17151 02019 27/57 /3202 10003 21021 39424 40047 53028 77771 333 69925 90710 91105= 02022 Abisko/Automated 2,8 (14:00 2021-10-17) SE-BD AAXX 17121 02022 45770 83107 10028 21025 39529 40003 52022 333 87/56 88/58 90710 91112= 02024 Stora Sjoefallet|Vietas 2,3 17:00 2021-10-17 SE-BD AAXX 17151 02024 47/75 /3111 10023 21002 77187 333 90710 91116= 02029 Tarfala -2,4 17:00 2021-10-17 SE-BD AAXX 17151 02029 46/// /2907 11024 21089 38686 53023 333 90710 91113=
02031 Rensjoen|Rautas 1,1 17:00 2021-10-17 SE-BD AAXX 17151 02031 27/84 /3308 10011 21025 700// 333 60005 90710 91113= 02036 Nikkaluokta/Automated 1,5 17:00 2021-10-17 SE-BD AAXX 17151 02036 27984 83304 10015 21051 39455 40019 53023 700// 333 60005 88/59 90710 91107= 02038 Latnivaara|Ladnivare 1,0 17:00 2021-10-17 SE-BD AAXX 17151 02038 47/73 /3305 10010 21014 70072 333 90710 91108= 02044 Kiruna|Tuolluvaara/Airpor 1,0 17:00 2021-10-17 SE-BD KRN ESNQ AAXX 17151 02044 47684 /3404 10010 21001 39458 40012 52025 724// 333 84/48 88/58= 02045 Kiruna|Tuolluvaara/Geofys /// 16:00 2021-10-17 SE-BD AAXX 1714/ 02045 333 55301=
02049 Gallivare|Malmberget/Priv 1,4 17:00 2021-10-17 SE-BD GEV ESNG AAXX 17151 02049 27/62 /3404 10014 21006 39569 40005 52027 72376 333 60005 90710 91112= 02055 Naimakka|Siikavuopio 1,1 17:00 2021-10-17 SE-LL AAXX 17151 02055 27984 72904 10011 21032 70072 333 60005 83/59 87/60 90710 91110= 02064 Saittarova 1,5 17:00 2021-10-17 SE-BD AAXX 17151 02064 27/84 /3403 10015 21010 70064 333 60005 90710 91108= 02072 Porkalompolo|Parkalompolo 1,0 17:00 2021-10-17 SE-BD AAXX 17151 02072 27159 83405 10010 21006 39604 49984 52029 77187 333 60005 82/02 83/12 88/21 90710 91110= 02081 Karesuando/Airport 1,1 17:00 2021-10-17 SE-BD AAXX 17151 02081 27/64 /3406 10011 21019 39594 49997 52025 7//62 333 60005 90710 91111=
02095 Pajala|Kungsstrand 2,2 17:00 2021-10-17 SE-BD AAXX 17151 02095 27472 73405 10022 20002 39767 49969 53031 7//86 333 60005 87/17 90710 91111= 02101 Palkem|Björkfors 2,0 17:00 2021-10-17 SE-AC AAXX 17151 02101 45584 /3205 10020 21017 39508 40062 52020 333 83/21 87/32 88/56= 02102 Stekenjokk|Stikkenjokk -2,9 17:00 2021-10-17 SE-AC AAXX 17151 02102 46/// /3114 11029 21046 333 90710 91119= 02103 Hemavan-Skorvfjalle|Portb -0,9 17:00 2021-10-17 SE-AC AAXX 17151 02103 46/// /3108 11009 21022 333 90710 91113= 02110 Gielas|Svallgonäs 0,6 17:00 2021-10-17 SE-AC AAXX 17151 02110 27/81 /2904 10006 21020 700// 333 60005 90710 91109=
02119 Kvikkjokk Arrenjarka A|Nj 3,4 17:00 2021-10-17 SE-BD AAXX 17151 02119 25684 83202 10034 21041 39641 40024 52026 333 60005 88/45 90710 91105= 02121 Mierkenis|Vuoggatjålme 0,2 17:00 2021-10-17 SE-BD AAXX 17151 02121 27/62 /3204 10002 21020 39311 40050 53024 72487 333 69905 90710 91108= 02124 Arjeplog|Sakkavare 2,4 17:00 2021-10-17 SE-BD AAXX 17151 02124 25584 83102 10024 21021 39505 40026 52023 333 60005 81/28 88/56 90710 91110= 02126 Gunnarn|Bastuträsk/Airpor 3,5 17:00 2021-10-17 SE-AC ESPD AAXX 17151 02126 25684 83005 10035 21017 39696 40032 52019 333 60005 88/40 90710 91109= 02135 Buresjoen 2,5 17:00 2021-10-17 SE-AC AAXX 17151 02135 27584 83204 10025 21018 70072 333 60005 86/21 88/28 90710 91109=
02141 Tjakaape|Nausta -0,4 17:00 2021-10-17 SE-BD AAXX 17151 02141 27/21 93204 11004 21004 39323 40020 52026 77177 89/// 333 69955 89/25 90710 91006 91106= 02147 Malaa-Braennan|Släppträsk 1,3 17:00 2021-10-17 SE-AC AAXX 17151 02147 27/66 /3104 10013 21004 72472 333 60005 90710 91108= 02149 Arvidsjaur|Fjällbonäs 1,1 17:00 2021-10-17 SE-BD AAXX 17151 02149 27467 83106 10011 20002 39549 40014 53023 72472 333 69905 81/12 86/50 88/57 90710 91110= 02151 Jokkmokk|Koskats/Jokkmokk 2,0 17:00 2021-10-17 SE-BD AAXX 17151 02151 27584 7//// 10020 21002 39672 40007 51028 74186 333 60005 83/23 87/56 555 60005= 02154 Vidsel|Nästräsk/AFB 2,5 17:00 2021-10-17 SE-BD ESPE AAXX 17151 02154 27983 03206 10025 20005 39783 40006 53025 75184 80000 333 69905 90710 91009 91110=
02161 Nattavaara 1,5 17:00 2021-10-17 SE-BD AAXX 17151 02161 27468 83306 10015 21010 70086 333 60005 82/15 88/28 88/41 90710 91111= 02171 Boden|Avaheden/Army Air B 3,1 17:00 2021-10-17 SE-BD ESPG AAXX 17151 02171 27/81 93204 10031 20013 39949 49980 53026 75265 89/// 333 69925 89/40 90710 91009 91109= 02173 Aelvsbyn|Högheden 2,7 17:00 2021-10-17 SE-BD AAXX 17151 02173 27/64 93004 10027 20012 76166 333 69905 89/22 90710 91107= 02174 Lakatraesk|Lakaträsk 1,6 17:00 2021-10-17 SE-BD AAXX 17151 02174 27/// 93303 10016 21003 39763 49991 53028 76166 333 69915 89/01 90710 91108= 02176 Ronnskar|Jävrebodarna/Aut 3,4 17:00 2021-10-17 SE- AAXX 17151 02176 27/81 93208 10034 20010 76166 333 69915 89/39 90710 91114=
02181 Svartbyn|Mjölan/Automated 2,4 17:00 2021-10-17 SE-BD AAXX 17151 02181 27984 03304 10024 20007 39889 49965 53028 72366 333 60005 90710 91111= 02183 Lulea Sol|Kallax /// 16:00 2021-10-17 SE-BD AAXX 1714/ 02183 333 55300 20123= 02184 Paharova 1,3 17:00 2021-10-17 SE-BD AAXX 17151 02184 27/83 /3403 10013 20002 39699 49978 52029 76186 333 60005 90710 91111= 02186 Kallax|Svartöstaden/Lulea 2,6 17:00 2021-10-17 SE-BD LLA ESPA AAXX 17151 02186 27682 93308 10026 20014 39944 49969 53024 76165 333 69935 91011 90710 91111= 02188 Rodkallen|Storbrändön/Aut 3,7 17:00 2021-10-17 SE- AAXX 17151 02188 27464 83210 10037 20031 76166 333 69945 86/12 87/23 88/35 90710 91116=
02191 Storoen|Storön 3,3 17:00 2021-10-17 SE- AAXX 17151 02191 27480 83206 10033 20022 76162 333 69915 86/12 87/50 88/59 90710 91111= 02197 Haparanda|Sundholmen/Hapa 3,1 17:00 2021-10-17 SE-BD AAXX 17151 02197 27484 83404 10031 20020 39923 49941 52026 7//86 333 60005 87/13 88/50 90710 91109= 02199 Ylinenjaervi|Ylinenjärvi 2,0 17:00 2021-10-17 SE-BD AAXX 17151 02199 27970 03305 10020 20010 76166 333 69915 90710 91108= 02205 Storlien Sol /// (21:00 2021-08-27) SE-Z AAXX 2719/ 02205 NIL= 02207 Storlien-Visjovalen|Visjö 0,0 17:00 2021-10-17 SE-Z AAXX 17151 02207 27310 73005 10000 21001 39423 40133 53018 78587 333 69925 81/07 87/10 90710 91113=
02209 Sylarna|Tjallingen/Automa -2,6 17:00 2021-10-17 SE-Z AAXX 17151 02209 46/// /2909 11026 21039 333 90710 91113= 02210 Blahammaren A|Blåhammaren -2,9 17:00 2021-10-17 SE-Z AAXX 17151 02210 46/// /2814 11029 21032 333 90710 91124= 02214 Trillevallen|Sefrivatn /// (23:00 2021-08-02) SE-18 AAXX 0221/ 02214 64387A 32560 10229 20102 38549 48543 8523/333 59003 85825= 02219 Gaddede A|Gussvattnet 0,6 17:00 2021-10-17 SE-Z AAXX 17151 02219 27/63 /2904 10006 21003 39418 40089 53021 77187 333 60005 90710 91109= 02221 Korsvattnet|Mjölkvattnet -0,0 17:00 2021-10-17 SE-Z AAXX 17151 02221 27/21 /3309 11000 21018 78587 333 60005 90710 91114=
02226 Ostersund-Åre Airport 2,7 17:00 2021-10-17 SE-Z OSD ESNZ AAXX 17151 02226 45584 /3010 10027 21005 39640 40098 51020 333 83/21= 02229 Östersund Sol|Västerhus /// 16:00 2021-10-17 SE-Z AAXX 1714/ 02229 333 55301 20325= 02230 Gubbhögen/Högbynäs 3,3 17:00 2021-10-17 SE-Z AAXX 17151 02230 27/84 /3004 10033 21016 700// 333 60005 90710 91111= 02231 Föllinge 3,0 17:00 2021-10-17 SE-Z AAXX 17151 02231 27984 03005 10030 21024 700// 333 60005 90710 91113= 02236 Hallhåxåsen 2,3 17:00 2021-10-17 SE-Z AAXX 17151 02236 27584 12904 10023 21019 39620 40078 53020 700// 333 60005 81/31 90710 91108=
02242 Hoting|Andersnäset 4,4 17:00 2021-10-17 SE-Z AAXX 17151 02242 27/84 /3004 10044 21025 700// 333 60005 90710 91110= 02243 Krångede|Bölen 3,8 17:00 2021-10-17 SE-Y AAXX 17151 02243 27/84 /2802 10038 21033 39786 40054 52012 7//86 333 60005 90710 91110= 02245 Vilhelmina|Dalasjö/Automa 3,0 17:00 2021-10-17 SE-AC AAXX 17151 02245 27/84 /3105 10030 21031 39622 40045 53018 70087 333 60005 90710 91111= 02247 Krangede|Döviken/Automate 4,8 17:00 2021-10-17 SE-Z AAXX 17151 02247 27656 12904 10048 21038 39845 40070 53018 70486 333 60005 81/44 90710 91111= 02254 Åsele/Söråsele 3,1 17:00 2021-10-17 SE-AC AAXX 17151 02254 27784 72903 10031 21023 39668 40042 53013 70087 333 60005 87/50 90710 91108=
02260 Västmarkum|Östmarkum 3,0 17:00 2021-10-17 SE-Y AAXX 17151 02260 27/84 /3003 10030 21001 39870 40045 51019 78182 333 69905 90710 91112= 02261 Lycksele|Hälsingfors 1,9 17:00 2021-10-17 SE-AC AAXX 17151 02261 27/84 /2903 10019 20006 39767 40025 53017 72386 333 60005 90710 91105= 02263 Fredrika|Fristad 1,4 17:00 2021-10-17 SE-AC AAXX 17151 02263 27484 73003 10014 21005 78187 333 69905 81/19 87/50 90710 91108= 02265 Hemling 2,8 17:00 2021-10-17 SE-Y AAXX 17151 02265 27583 82904 10028 21007 39811 40035 52016 700// 333 60005 81/24 86/42 88/50 90710 91109= 02267 Örnskoldsvik/Airport 3,3 17:00 2021-10-17 SE-Y OER ESNO AAXX 17151 02267 45584 /2907 10033 20003 39898 40030 53019 333 86/23 88/46=
02269 Skagsudde|Skeppsmalen/Aut 4,9 17:00 2021-10-17 SE-Y AAXX 17151 02269 25584 43008 10049 21008 333 60005 84/32 90710 91117= 02271 Norsjö|Finnäs 1,2 17:00 2021-10-17 SE-AC AAXX 17151 02271 27/82 /3005 10012 21001 39636 40014 53019 72472 333 69905 90710 91109= 02282 Petisträsk 1,2 17:00 2021-10-17 SE-AC AAXX 17151 02282 27474 83004 10012 20004 77172 333 60005 88/10 87/26 88/35 90710 91107= 02283 Umeå Robacksdalen|Teg /// 16:00 2021-10-17 SE-AC AAXX 1714/ 02283 333 55300 20235 41113= 02284 Järnäsklubb 4,1 17:00 2021-10-17 SE-AC AAXX 17151 02284 27584 83206 10041 20003 30014 40023 53018 72386 333 60005 81/21 88/29 90710 91111=
02286 Umeå/Airport 2,9 17:00 2021-10-17 SE-AC UME ESNU AAXX 17151 02286 47575 /2905 10029 20016 30003 40012 53017 781// 333 82/23 86/38 87/50= 02287 Holmön 3,7 17:00 2021-10-17 SE- AAXX 17151 02287 27265 73010 10037 20021 39994 40004 52015 7616/ 333 69905 81/04 83/19 87/50 90710 91114= 02293 Skellefteå/Airport 2,2 17:00 2021-10-17 SE-AC SFT ESNS AAXX 17151 02293 47566 /2906 10022 20009 39932 49990 52015 751// 333 89/28= 02297 Bjuröklubb 2,8 17:00 2021-10-17 SE- AAXX 17151 02297 27564 93013 10028 20022 39934 49979 52013 76166 333 69925 89/32 90710 91116= 02307 Idre|Idre Fjäll/Automated -0,4 17:00 2021-10-17 SE-W AAXX 17151 02307 46/// /3110 11004 21052 333 90710 91116=
02308 Tannas|Tännäs/Automated 0,2 17:00 2021-10-17 SE-Z AAXX 17151 02308 27984 03002 10002 21053 39259 40130 52018 7//82 333 60005 90710 91109= 02316 Särna 4,9 (14:00 2021-10-17) SE-W AAXX 17121 02316 46/// ///// 10049= 02317 Dravagen 2,0 17:00 2021-10-17 SE-Z AAXX 17151 02317 27984 03105 10020 21041 700// 333 60005 90710 91113= 02319 Börtnan 2,3 17:00 2021-10-17 SE-Z AAXX 17151 02319 27/84 /2904 10023 21036 700// 333 60005 90710 91111= 02321 Älvdalen|Rot 6,1 17:00 2021-10-17 SE-W AAXX 17151 02321 27784 13304 10061 21050 39814 40121 53014 700// 333 60005 81/50 90710 91111=
02325 Klövsjöhöjden|Sångbäcken 0,0 17:00 2021-10-17 SE-Z AAXX 17151 02325 27/84 /3106 10000 21045 39152 40111 53023 700// 333 60005 90710 91112= 02327 Sveg|Sundsätt/Sveg A 4,0 17:00 2021-10-17 SE-Z AAXX 17151 02327 25/84 /3006 10040 21040 39675 40111 53018 333 60005 90710 91111= 02329 Hamra 3,5 17:00 2021-10-17 SE-X AAXX 17151 02329 27/84 /2904 10035 21049 39555 40105 52014 700// 333 60005 90710 91111= 02331 Hunge 3,8 17:00 2021-10-17 SE-Z AAXX 17151 02331 27584 33005 10038 21022 700// 333 60005 83/32 90710 91111= 02338 Edsbyn|Gammelhomna/Automa 6,1 17:00 2021-10-17 SE-X AAXX 17151 02338 27784 12903 10061 21045 39876 40101 53015 700// 333 60005 81/50 90710 91109=
02343 Torpshammar|Rombäck 5,6 17:00 2021-10-17 SE-Y AAXX 17151 02343 27984 03004 10056 21036 39955 40077 52016 700// 333 60005 90710 91111= 02347 Delsbo|Åkre 5,9 17:00 2021-10-17 SE-X AAXX 17151 02347 27984 03005 10059 21044 39996 40084 53016 700// 333 60005 90710 91111= 02355 Kuggören|Bålsön/Automated 7,4 17:00 2021-10-17 SE- AAXX 17151 02355 25784 33006 10074 21036 30058 40070 53012 333 60005 83/50 90710 91114= 02366 Sundsvall|Midlanda/Härnös 6,4 17:00 2021-10-17 SE-Y SDL ESNN AAXX 17151 02366 45984 /2906 10064 21015 30054 40060 53014 333 82/64= 02368 Brämön/Sanna/Automated 6,9 17:00 2021-10-17 SE- AAXX 17151 02368 27984 43010 10069 21023 700// 333 60005 84/66 90710 91115=
02382 Lungö|Uddhamn/Automated 4,8 17:00 2021-10-17 SE- AAXX 17151 02382 27/84 /2906 10048 20003 72386 333 69905 90710 91114= 02403 Naven|Skaven 8,2 17:00 2021-10-17 SE- AAXX 17151 02403 27984 03203 10082 21013 700// 333 60005 90710 91105= 02407 Malung A|Grimsmyrheden 5,4 17:00 2021-10-17 SE-W AAXX 17151 02407 25984 03103 10054 21067 39760 40130 53014 333 60005 90710 91109= 02408 Blomskog|Vammerviken/Auto 6,5 17:00 2021-10-17 SE- AAXX 17151 02408 27984 03001 10065 21021 39939 40148 53011 700// 333 60005 90710 91105= 02411 Arvika|Långvak 7,0 17:00 2021-10-17 SE-S AAXX 17151 02411 27984 03301 10070 21044 30062 40144 53010 700// 333 60005 90710 91105=
02417 Pålgrunden|Tallbacken /// 17:00 2021-10-17 SE-S AAXX 17151 02417 46/// /3006 333 90710 91108= 02418 Karlstad/Airport 7,3 17:00 2021-10-17 SE-S KSD ESSQ AAXX 17151 02418 45/84 /3103 10073 21015 30010 40141 53011= 02419 Sookojan|Nolgård /// 16:00 2021-10-17 SE-S AAXX 1714/ 02419 333 55310 20808= 02423 Sunne|Ulvsby 7,1 17:00 2021-10-17 SE-S AAXX 17151 02423 27984 03002 10071 21032 700// 333 60005 90710 91105= 02426 Gustavsfors 5,6 17:00 2021-10-17 SE-S AAXX 17151 02426 27984 03201 10056 21035 39903 40133 53008 700// 333 60005 90710 91104=
02429 Daglösen|Gränäset 4,4 17:00 2021-10-17 SE-US AAXX 17151 02429 27984 00000 10044 21029 700// 333 60005 90710 91106= 02431 Kloten 4,9 17:00 2021-10-17 SE-T AAXX 17151 02431 27984 02803 10049 21043 39777 40123 53010 700// 333 60005 90710 91108= 02432 Orebro|Tredingskullen/Aut 8,6 17:00 2021-10-17 SE-T AAXX 17151 02432 45/83 /2704 10086 21038 30059 40129 52011= 02435 Borlänge|Romme/AFB 6,3 17:00 2021-10-17 SE-W BLE ESSD AAXX 17151 02435 45/84 /2905 10063 21039 39925 40112 53011= 02437 Aspa /// 16:00 2021-10-17 SE-U ESQO AAXX 1714/ 02437 333 55310 20682=
02440 Åmot 6,1 17:00 2021-10-17 SE-X AAXX 17151 02440 25984 02904 10061 21043 333 60005 90710 91109= 02441 Mora|Vinäs 6,3 17:00 2021-10-17 SE-W AAXX 17151 02441 27984 03005 10063 21056 39876 40116 52013 700// 333 60005 90710 91110= 02443 Enköping/Åkerby 7,5 17:00 2021-10-17 SE-C AAXX 17151 02443 05984 03002 10075 21027 30081 40111 53008 60005 80000 333 60005 90710 91006 91106= 02449 Eskilstuna|Flacksta/AB 7,5 17:00 2021-10-17 SE-D EKT ESSU AAXX 17151 02449 27966 02904 10075 21046 30104 40119 53007 700// 333 60005 90710 91108= 02450 Eggegrund|Långsand 7,6 (13:00 2021-10-17) SE- AAXX 17111 02450 46/// /2808 10076 21020 333 90710 91111=
02452 Kilsbergen-Suttarboda|Sve 5,9 17:00 2021-10-17 SE-T AAXX 17151 02452 25984 02803 10059 21045 333 60005 90710 91106= 02453 Gävle|Varva/Automated 7,4 17:00 2021-10-17 SE-X AAXX 17151 02453 27984 02903 10074 21035 700// 333 60005 90710 91107= 02456 Films Kyrkby|Kyrkbyn 6,1 17:00 2021-10-17 SE-C AAXX 17151 02456 25984 02802 10061 21031 30053 40096 52008 333 60005 90710 91107= 02458 Uppsala|Ärna/AFB 6,7 17:00 2021-10-17 SE-C ESCM AAXX 17151 02458 05983 02904 10067 21017 30080 40105 53011 60005 80000 333 60005 90710 91006 91107= 02460 Stockholm|Kimsta/Arlanda 6,3 17:00 2021-10-17 SE-AB ARN ESSA AAXX 17151 02460 45/84 /2902 10063 21041 30049 40100 53007=
02462 Uppsala Universitet|Almtu 6,1 (15:00 2019-11-20) SE-C AAXX 20141 02462 26/// /1701 10061 20060 30240 40279 333 60005= 02464 Stockholm/Bromma 7,8 17:00 2021-10-17 SE-AB BMA ESSB AAXX 17151 02464 45/84 /2705 10078 21034 30089 40106 53004= 02468 Stora Spånsberget|Spånsfä 3,0 17:00 2021-10-17 SE-W AAXX 17151 02468 27/84 /1504 10030 21066 700// 333 60005 90710 91109= 02469 Tullinge|Eklundshov 7,3 17:00 2021-10-17 SE-AB AAXX 17151 02469 25/84 /2904 10073 21040 333 60005 90710 91110= 02476 Floda|Stav/Automated 7,7 17:00 2021-10-17 SE-D AAXX 17151 02476 27984 02703 10077 21028 30079 40119 52006 700// 333 60005 90710 91106=
02481 Sala|Isätra 7,1 17:00 2021-10-17 SE-U AAXX 17151 02481 27984 02904 10071 21038 30039 40110 53009 700// 333 60005 90710 91108= 02482 Kerstinbo|Sälja 6,7 17:00 2021-10-17 SE-X AAXX 17151 02482 27984 03302 10067 21036 30033 40103 52010 700// 333 60005 90710 91106= 02483 Stockholm Kth|Stocksund/A /// 16:00 2021-10-17 SE-AB AAXX 1714/ 02483 333 55310 20681= 02484 Stockholm|Stocksund/Obser 7,7 17:00 2021-10-17 SE-AB AAXX 17151 02484 46/// ///// 10077 21034 30050 40105 53004= 02485 Stockholm|Stocksund/Autom 0,3 (07:00 2019-10-30) SE-AB AAXX 30061 02485 12/70 82701 10003 21030 30205 40271 60002 333 10037 20007=
02486 Adelsö/Hovgården 7,8 17:00 2021-10-17 SE- AAXX 17151 02486 27/84 /2806 10078 21020 700// 333 60005 90710 91110= 02487 Stavsnäs|Eriksberg/Automa 7,5 17:00 2021-10-17 SE- AAXX 17151 02487 46/// /2804 10075 21035 333 90710 91108= 02488 Örskar|Askskär/Automated 7,8 17:00 2021-10-17 SE- AAXX 17151 02488 27984 02812 10078 21001 30078 40089 52006 700// 333 60005 90710 91115= 02489 Hårsfjarden|Berga 7,7 17:00 2021-10-17 SE- AAXX 17151 02489 05984 02803 10077 21014 30104 40109 53005 60005 80000 333 60005 90710 91006 91107= 02490 Svanberga 7,0 17:00 2021-10-17 SE-AB AAXX 17151 02490 27984 02902 10070 21020 30076 40096 53007 700// 333 60005 90710 91107=
02493 Söderarm|Österäng 8,3 17:00 2021-10-17 SE- AAXX 17151 02493 47984 02910 10083 21010 700// 333 90710 91112= 02496 Svenska Högarna|Kudoxa/Li 9,8 (08:00 2021-06-01) SE- AAXX 01060 02496 02984 00507 10098 333 10100 20081 31/// 70000= 02498 Svenska Högarna A|Kudoxa 8,2 17:00 2021-10-17 SE- AAXX 17151 02498 25984 02811 10082 21020 30076 40092 53003 333 60005 90710 91115= 02500 Nordkoster|Nord-Koster 8,2 17:00 2021-10-17 SE- AAXX 17151 02500 25984 03402 10082 21015 30112 40154 52011 333 60005 90710 91105= 02501 Vaderöarna|Sjöviken 8,6 17:00 2021-10-17 SE- AAXX 17151 02501 46/// /3205 10086 21012 30124 40153 53011 333 90710 91106=
02505 Måseskar|Käringön 9,3 17:00 2021-10-17 SE- AAXX 17151 02505 27983 03205 10093 20011 700// 333 60005 90710 91108= 02513 Göteborg|Torp/Automated 10,3 17:00 2021-10-17 SE- AAXX 17151 02513 26/// /3202 10103 20001 30147 40151 53013 333 60005 90710 91106= 02516 Vinga|Fotö/Lighthouse 9,8 17:00 2021-10-17 SE- AAXX 17151 02516 27984 03406 10098 20016 30129 40152 53011 700// 333 60005 90710 91108= 02518 Nidingen|Vässingsö/Lighth 10,7 17:00 2021-10-17 SE- AAXX 17151 02518 466// 33207 10107 20047 333 83/34 90710 91110= 02520 Såtenas|Såtenäs Villastad 7,8 17:00 2021-10-17 SE- AAXX 17151 02520 25983 03503 10078 21018 30082 40149 53014 333 60005 91004 90710 91104 555 60005=
02526 Göteborg/Landvetter 8,2 17:00 2021-10-17 SE- GOT ESGG AAXX 17151 02526 45/84 /3003 10082 20006 39963 40150 53010= 02536 Rångedala|Vevelhult/Autom 6,9 17:00 2021-10-17 SE- AAXX 17151 02536 27980 03103 10069 21007 39783 40144 53010 700// 333 60005 90710 91106= 02539 Ullared|Spetsebo 9,0 17:00 2021-10-17 SE-N AAXX 17151 02539 47684 62701 10090 20034 700// 333 86/39 90710 91105= 02540 Kroppefjäll-Grånan|Årbol 7,5 17:00 2021-10-17 SE- AAXX 17151 02540 27984 03301 10075 21034 700// 333 60005 90710 91104= 02542 Hallum|Hällum 7,7 17:00 2021-10-17 SE- AAXX 17151 02542 27984 03302 10077 21009 30060 40147 53013 700// 333 60005 90710 91105=
02544 Karlsborg|Gräshult 7,3 17:00 2021-10-17 SE- AAXX 17151 02544 05984 03003 10073 20005 30026 40141 53017 60005 80000 333 60005 90710 91006 91107= 02545 Axstal|Hanken 7,8 17:00 2021-10-17 SE- AAXX 17151 02545 05984 03104 10078 20039 30033 40141 53017 60005 80000 333 60005 90710 91007 91109= 02546 Gardsjö|Korterud 5,4 17:00 2021-10-17 SE-T AAXX 17151 02546 27984 02802 10054 21008 39880 40139 52015 700// 333 60005 90710 91105= 02548 Visingsö|Ed 7,8 17:00 2021-10-17 SE-F AAXX 17151 02548 27/84 /3106 10078 21015 700// 333 60005 90710 91109= 02549 Tomtabacken|Stora Åkerhul 6,4 17:00 2021-10-17 SE-F AAXX 17151 02549 27684 73002 10064 21014 700// 333 60005 87/42 90710 91106=
02550 Jönkoping/Airport 7,7 17:00 2021-10-17 SE-F JKG ESGJ AAXX 17151 02550 45/84 /0000 10077 20008 39867 40140 53012= 02552 Malexander|Mo 7,0 17:00 2021-10-17 SE-E AAXX 17151 02552 27984 03102 10070 21015 700// 333 60005 90710 91107= 02554 Kettstaka|Hulta 6,1 17:00 2021-10-17 SE-E AAXX 17151 02554 27984 03103 10061 21023 700// 333 60005 90710 91107= 02556 Hagshult|Hemmershult/AFB 8,7 17:00 2021-10-17 SE-F ESMV AAXX 17151 02556 07784 43002 10087 20038 39935 40141 53009 60005 70086 333 60005 84/50 90710 91004 91107= 02557 Horn|Äleby 7,0 17:00 2021-10-17 SE-E AAXX 17151 02557 27784 13002 10070 21014 30020 40131 53013 700// 333 60005 81/50 90710 91108=
02558 Kolmarden-Strömsfors|Strö 6,9 17:00 2021-10-17 SE-E AAXX 17151 02558 27984 03002 10069 21019 39932 40121 52008 700// 333 60005 90710 91105= 02559 Gladhammar|Ringsbo 8,4 17:00 2021-10-17 SE-H AAXX 17151 02559 27/84 /3102 10084 20009 70082 333 60005 90710 91105= 02561 Kvarn|Prästtomta 7,6 17:00 2021-10-17 SE-E AAXX 17151 02561 05984 02801 10076 21007 30043 40131 52014 60005 80000 333 60005 90710 91004 91104= 02562 Linköping|Jägarvallen/Mal 7,7 17:00 2021-10-17 SE-E AAXX 17151 02562 25984 02804 10077 20011 30018 40133 53013 333 60005 91006 90710 91108 555 60005= 02563 Harstena|Missjö 9,0 17:00 2021-10-17 SE- AAXX 17151 02563 25984 03103 10090 21010 30097 40119 52007 333 60005 90710 91108=
02565 Hultsfred|Målilla/AFB 9,0 17:00 2021-10-17 SE-H HLF ESSF AAXX 17151 02565 27667 43003 10090 20028 30012 40130 53010 7//86 333 60005 81/45 84/56 90710 91106= 02567 Landsort 8,9 17:00 2021-10-17 SE- AAXX 17151 02567 27984 02908 10089 21025 30089 40113 53004 700// 333 60005 90710 91111= 02570 Norrköping|Östra Eneby/Br /// (19:00 2020-02-28) SE-E AAXX 28181 02570 10804 10368 20196 30032 40097 60001 81100 333 56100 59005 60007 81827= 02574 Norrköping|Fiskeby 8,6 17:00 2021-10-17 SE-E AAXX 17151 02574 27984 02802 10086 21009 30072 40123 52009 700// 333 60005 90710 91105= 02575 Ölandsnorraudde|Nabbelund 10,3 17:00 2021-10-17 SE- AAXX 17151 02575 27783 83005 10103 20042 30120 40124 53007 70082 333 60005 88/56 90710 91109=
02587 Fårösund-Ar 8,4 17:00 2021-10-17 SE- AAXX 17151 02587 27984 02805 10084 20020 700// 333 60005 90710 91108= 02589 Gotska Sandön|Lauters 7,2 17:00 2021-10-17 SE- AAXX 17151 02589 25984 02904 10072 21019 30087 40108 52003 333 60005 90710 91108= 02590 Visby/Airport 8,6 17:00 2021-10-17 SE-I VBY ESSV AAXX 17151 02590 25883 83203 10086 20047 30058 40119 51005 333 60005 88/56 91005 90710 91106 555 60005= 02598 Östergarnsholm|Katthammar 9,2 17:00 2021-10-17 SE- AAXX 17151 02598 46/// /2906 10092 20046 333 90710 91108= 02604 Halmstad|Karlsro/AFB 11,2 (14:00 2021-10-17) SE-N HAD ESMT AAXX 17121 02604 45580 /3006 10112 20063 30109 40146 52006 333 81/27=
02605 Hallands|Kalvskärslid/Vad 10,7 17:00 2021-10-17 SE- AAXX 17151 02605 27980 03107 10107 20059 700// 333 60005 90710 91110= 02607 Ängelholm|Barkåkra/AFB|F- 10,2 17:00 2021-10-17 SE- ESDB AAXX 17151 02607 45583 /2906 10102 20055 30134 40157 53007 333 82/23 84/40= 02611 Helsingborg|Västra Ramlös 10,8 17:00 2021-10-17 SE- AAXX 17151 02611 27/80 /2104 10108 20064 30104 40157 53004 7818/ 333 69905 90710 91107= 02615 Falsterbo|Falsterbovång/F 11,4 17:00 2021-10-17 SE- AAXX 17151 02615 25584 62908 10114 20062 30161 40165 53002 333 60005 84/24 86/64 90710 91110= 02616 Falsterbo|Falsterbovång/L 13,9 (08:00 2021-06-01) SE- AAXX 01060 02616 01/57 73504 10139 20126 30191 40197 53003 71022 85032 333 10171 20129 30/// 70000 85364 87258=
02618 Torup|Torpup|Tranabo/Torp 8,8 17:00 2021-10-17 SE-N AAXX 17151 02618 25/68 /2703 10088 20040 39984 40147 53009 333 60005 90710 91107= 02622 Ljungby|Hovdinge 9,2 17:00 2021-10-17 SE-G AAXX 17151 02622 27984 02802 10092 20034 700// 333 60005 90710 91105= 02623 Hörby|Slagtofta 10,2 17:00 2021-10-17 SE- AAXX 17151 02623 27584 62903 10102 20057 70082 333 60005 81/24 82/30 86/50 90710 91108= 02625 Skillinge|Gislövhammar/Au 11,2 17:00 2021-10-17 SE- AAXX 17151 02625 27984 02703 10112 20068 30149 40156 53005 700// 333 60005 90710 91106= 02628 Hano|Hanö/Automated 10,2 17:00 2021-10-17 SE- AAXX 17151 02628 27783 22808 10102 20061 700// 333 60005 82/56 90710 91112=
02629 Hästveda|Hästveda 9,0 17:00 2021-10-17 SE- AAXX 17151 02629 07583 12903 10090 20070 30026 40150 53007 60005 70085 333 60005 81/30 90710 91005 91107= 02632 Utklippan|Stenshamn 11,4 17:00 2021-10-17 SE- AAXX 17151 02632 46/// /2709 10114 20077 333 90710 91111= 02635 Malmö|Husie/Automated 10,7 17:00 2021-10-17 SE- AAXX 17151 02635 25/84 /2803 10107 20058 333 60005 90710 91106= 02636 Malmö|Beddinge Läge/Sturu 10,2 17:00 2021-10-17 SE- MMX ESMS AAXX 17151 02636 45684 /2804 10102 20057 30074 40161 53004 333 82/40 84/65= 02644 Ölandssödraudde|Ottenby/A 10,6 17:00 2021-10-17 SE- AAXX 17151 02644 27783 12506 10106 20079 30130 40134 55001 700// 333 60005 81/50 90710 91108=
02648 Växjö|Telestad 9,2 17:00 2021-10-17 SE-G AAXX 17151 02648 27/82 /3003 10092 20031 39895 40135 53007 78186 333 69905 90710 91107= 02661 Kosta|Lövsjö 8,0 17:00 2021-10-17 SE-G AAXX 17151 02661 27672 83102 10080 20039 39861 40139 53008 78186 333 69925 87/40 88/49 90710 91005 91105= 02664 Ronneby|Häggatorp/AFB 10,6 17:00 2021-10-17 SE-K RNB ESDF AAXX 17151 02664 25983 02703 10106 20064 30071 40142 53004 333 60005 91004 90710 91106 555 60005= 02667 Söderstjerna|Drottningskä 11,5 17:00 2021-10-17 SE- AAXX 17151 02667 05783 32606 10115 20081 30137 40140 53003 60005 333 60005 83/50 90710 91008 91110= 02670 Kalmar|Elverslösa/Airport 10,4 17:00 2021-10-17 SE-H ESDC AAXX 17151 02670 46674 /2804 10104 20054 30126 40132 53008 333 81/42 85/50=
02679 Hoburg|Burge/Hoburg A 8,6 17:00 2021-10-17 SE-I AAXX 17151 02679 27581 83004 10086 20054 30080 40124 53002 78286 333 69935 87/29 88/56 90710 91110= (191 rader visades) Du kan lägga till id-beteckningen först på raden i valfri Lista 1 - 5 [top] ↕°C [1] [2] [3] [4] [5] ??? LISTOR 00-nr NOT MEDD MT METAR SYNOP SE SE-AB SE-C SE-D SE-E SE-F SE-G SE-H SE-I SE-K SE-M SE-N SE-O SE-P SE-T SE-U SE-W SE-X SE-Y SE-Z SE-AC SE-BD rådata flyg flyg_osd